Kirwin, Kansas
Current Conditions -  °F | °C
As of 10:53 PM on Saturday 25 Oct 2014 (Local Time) from KHLC Reporting Station
Clear Clear  
Wind Chill: 66°   Ceiling: Unl
Heat Index: 66°   Visibility: 10mi
Dew Point: 48°   Wind: 5mph
Humidity: 52%   Direction: 80°E
Pressure: 29.92"   Gusts: NA
Location:  39.67°N, 99.12°W
Report Text: KHLC 260353Z AUTO 08004KT 10SM CLR 19/09 A2992 RMK AO2 SLP117 T01890089
Loading
Personal Weather Stations






























Interactive Weather Map
Tropical Storm Tracking
New forecast layout! Learn more

10-Day Weather Forecast

Advertisements
Track Severe Weather on mobile